Northumberland, New Hampshire
Current Conditions -  °F | °C
As of 3:52 PM on Thursday 27 Nov 2014 (Local Time) from KHIE Reporting Station
Overcast Overcast  
Wind Chill: 26°   Ceiling: 2200
Heat Index: 26°   Visibility: 10mi
Dew Point: 20°   Wind: 0mph
Humidity: 78%   Direction: NA
Pressure: 29.97"   Gusts: NA
Location:  44.3946°N, 71.4295°W
Report Text: KHIE 272052Z AUTO 00000KT 10SM OVC022 M03/M07 A2997 RMK AO2 SLP164 T10331067 53008
Loading
Personal Weather Stations






























Interactive Weather Map New forecast layout! Learn more

10-Day Weather Forecast

Advertisements
Track Severe Weather on mobile